Time;durP1;ratioP1;P1;durP2;ratioP2;P2;SDS_P1;SDS_P2;PMS_P1;PMS_P2;Temp;Humidity;BMP_temperature;BMP_pressure;BME280_temperature;BME280_humidity;BME280_pressure;Samples;Min_cycle;Max_cycle;Signal;HPM_P1;HPM_P2
2023/01/13 08:01:12;;;;;;;9.60;1.90;;;;;;;;;;6264438;22;1289606;-60
2023/01/13 08:03:39;;;;;;;6.22;1.70;;;;;;;;;;6345897;22;20139;-60
2023/01/13 08:06:05;;;;;;;10.57;2.30;;;;;;;;;;6344180;22;20154;-61
2023/01/13 08:11:07;;;;;;;8.93;2.13;;;;;;;;;;6346505;22;20225;-67
2023/01/13 08:13:34;;;;;;;7.57;2.28;;;;;;;;;;6327431;22;20201;-64
2023/01/13 08:16:01;;;;;;;10.10;2.22;;;;;;;;;;6322945;22;20824;-68
2023/01/13 08:18:27;;;;;;;7.53;2.33;;;;;;;;;;6340503;22;20160;-69
2023/01/13 08:20:54;;;;;;;8.13;2.05;;;;;;;;;;6323915;22;20613;-68
2023/01/13 08:31:10;;;;;;;7.13;1.83;;;;;;;;;;6337793;22;20182;-66
2023/01/13 08:36:12;;;;;;;10.18;2.13;;;;;;;;;;6340199;22;20204;-63
2023/01/13 08:38:39;;;;;;;10.77;1.95;;;;;;;;;;6341370;22;20157;-64
2023/01/13 09:04:27;;;;;;;8.40;2.47;;;;;;;;;;6332682;22;20251;-66
2023/01/13 09:38:04;;;;;;;8.02;2.03;;;;;;;;;;6344733;22;20189;-64
2023/01/13 10:14:31;;;;;;;8.32;1.85;;;;;;;;;;6340998;22;20197;-63
2023/01/13 10:17:10;;;;;;;12.85;2.60;;;;;;;;;;6341612;22;20420;-63
2023/01/13 10:19:43;;;;;;;8.75;1.90;;;;;;;;;;6342365;22;20169;-62
2023/01/13 10:22:12;;;;;;;10.30;2.20;;;;;;;;;;6341779;22;20118;-63
2023/01/13 10:24:50;;;;;;;7.03;1.92;;;;;;;;;;6342146;22;20146;-63
2023/01/13 10:27:22;;;;;;;8.50;2.00;;;;;;;;;;6342439;22;20130;-64
2023/01/13 10:29:48;;;;;;;7.43;1.88;;;;;;;;;;6342035;22;20148;-64
2023/01/13 10:32:14;;;;;;;10.95;2.20;;;;;;;;;;6342560;22;20207;-61
2023/01/13 10:34:49;;;;;;;8.80;1.75;;;;;;;;;;6342095;22;20174;-62
2023/01/13 10:37:22;;;;;;;12.05;2.22;;;;;;;;;;6342799;22;20157;-63
2023/01/13 10:39:49;;;;;;;8.65;2.03;;;;;;;;;;6342205;22;20605;-63
2023/01/13 10:42:16;;;;;;;9.93;2.05;;;;;;;;;;6341534;22;20158;-63
2023/01/13 10:44:58;;;;;;;15.50;2.50;;;;;;;;;;6341821;22;20150;-64
2023/01/13 10:47:26;;;;;;;8.55;1.90;;;;;;;;;;6341820;22;20157;-63
2023/01/13 10:50:00;;;;;;;6.68;1.70;;;;;;;;;;6342269;22;20205;-61
2023/01/13 10:52:29;;;;;;;14.25;2.03;;;;;;;;;;6341974;22;20445;-62
2023/01/13 10:54:59;;;;;;;8.45;1.77;;;;;;;;;;6267793;22;20299;-59
2023/01/13 10:57:33;;;;;;;6.50;1.88;;;;;;;;;;6190492;22;20212;-59
2023/01/13 11:00:02;;;;;;;7.80;1.70;;;;;;;;;;6187456;22;20213;-59
2023/01/13 11:02:30;;;;;;;6.57;2.13;;;;;;;;;;6187414;22;20254;-60
2023/01/13 11:05:02;;;;;;;7.10;1.58;;;;;;;;;;6184580;22;20265;-59
2023/01/13 11:07:29;;;;;;;6.03;2.10;;;;;;;;;;6190214;22;20247;-59
2023/01/13 11:10:13;;;;;;;9.25;1.83;;;;;;;;;;6212419;22;20228;-60
2023/01/13 11:13:10;;;;;;;;;;;;;;;;;;;;;
2023/01/13 11:15:59;;;;;;;6.30;1.67;;;;;;;;;;6060542;23;20275;-60
2023/01/13 11:18:39;;;;;;;7.57;2.05;;;;;;;;;;6161361;22;20221;-60
2023/01/13 11:21:09;;;;;;;7.60;1.80;;;;;;;;;;6223434;22;20134;-61
2023/01/13 11:23:36;;;;;;;11.45;1.80;;;;;;;;;;6341925;22;20213;-60
2023/01/13 11:26:22;;;;;;;9.20;1.92;;;;;;;;;;6341419;22;20157;-61
2023/01/13 11:28:51;;;;;;;8.35;1.60;;;;;;;;;;6340861;22;20191;-60
2023/01/13 11:31:38;;;;;;;10.93;2.05;;;;;;;;;;6341236;22;20149;-62
2023/01/13 11:34:12;;;;;;;8.52;2.03;;;;;;;;;;6341215;22;20166;-63
2023/01/13 11:36:39;;;;;;;7.68;1.88;;;;;;;;;;6339333;22;20179;-62
2023/01/13 11:39:15;;;;;;;6.53;1.63;;;;;;;;;;6339241;22;20486;-64
2023/01/13 11:41:43;;;;;;;8.18;2.40;;;;;;;;;;6338413;22;20175;-61
2023/01/13 11:44:17;;;;;;;7.53;1.80;;;;;;;;;;6339026;22;20146;-61
2023/01/13 11:46:43;;;;;;;7.53;1.83;;;;;;;;;;6338674;22;20583;-61
2023/01/13 11:49:13;;;;;;;12.52;2.83;;;;;;;;;;6339224;22;20195;-60
2023/01/13 11:52:03;;;;;;;8.57;2.20;;;;;;;;;;6339549;22;20149;-59
2023/01/13 11:54:39;;;;;;;6.32;2.08;;;;;;;;;;6341020;22;20154;-60
2023/01/13 11:57:24;;;;;;;5.45;1.75;;;;;;;;;;6341307;22;20468;-62
2023/01/13 11:59:57;;;;;;;8.52;1.90;;;;;;;;;;6341515;22;20138;-57
2023/01/13 12:02:23;;;;;;;10.75;2.60;;;;;;;;;;6318448;22;20528;-63
2023/01/13 12:05:01;;;;;;;5.75;1.65;;;;;;;;;;6312454;22;20186;-61
2023/01/13 12:07:35;;;;;;;7.00;1.95;;;;;;;;;;6206302;22;20246;-66
2023/01/13 12:10:22;;;;;;;8.43;1.92;;;;;;;;;;6341526;22;20130;-63
2023/01/13 12:13:14;;;;;;;5.10;1.45;;;;;;;;;;6340947;22;20221;-65
2023/01/13 12:15:52;;;;;;;6.25;1.65;;;;;;;;;;6340767;22;20138;-65
2023/01/13 12:18:24;;;;;;;8.35;1.65;;;;;;;;;;6341072;22;20138;-65
2023/01/13 12:21:05;;;;;;;5.82;1.40;;;;;;;;;;6328725;22;20194;-65
2023/01/13 12:23:46;;;;;;;5.05;1.58;;;;;;;;;;6340923;22;20662;-66
2023/01/13 12:26:13;;;;;;;4.30;1.30;;;;;;;;;;6340877;22;20133;-65
2023/01/13 12:28:42;;;;;;;4.70;1.58;;;;;;;;;;6341551;22;20176;-63
2023/01/13 12:31:08;;;;;;;4.68;1.75;;;;;;;;;;6341366;22;20161;-65
2023/01/13 12:33:53;;;;;;;8.75;1.73;;;;;;;;;;6340796;22;20167;-64
2023/01/13 12:36:27;;;;;;;4.60;1.88;;;;;;;;;;6341657;22;20142;-65
2023/01/13 12:38:56;;;;;;;9.75;1.60;;;;;;;;;;6341444;22;20180;-66
2023/01/13 12:41:23;;;;;;;4.93;1.75;;;;;;;;;;6341002;22;20167;-64
2023/01/13 12:46:43;;;;;;;5.18;1.48;;;;;;;;;;6342614;22;20177;-64
2023/01/13 12:49:19;;;;;;;3.75;1.50;;;;;;;;;;6341615;22;20150;-64
2023/01/13 12:51:52;;;;;;;10.10;1.50;;;;;;;;;;6341354;22;20167;-65
2023/01/13 12:54:30;;;;;;;4.05;1.20;;;;;;;;;;6340236;22;20503;-64
2023/01/13 12:56:57;;;;;;;5.35;1.40;;;;;;;;;;6340756;22;20144;-64
2023/01/13 12:59:22;;;;;;;5.05;1.42;;;;;;;;;;6341211;22;20142;-67
2023/01/13 13:01:49;;;;;;;4.80;1.65;;;;;;;;;;6340851;22;20138;-64
2023/01/13 13:04:18;;;;;;;5.35;1.20;;;;;;;;;;6340748;22;20138;-65
2023/01/13 13:06:49;;;;;;;6.13;1.30;;;;;;;;;;6365856;22;20189;-65
2023/01/13 13:09:40;;;;;;;4.15;1.15;;;;;;;;;;6340870;22;20127;-65
2023/01/13 13:15:21;;;;;;;6.00;1.30;;;;;;;;;;6304768;22;20165;-64
2023/01/13 13:17:59;;;;;;;3.90;1.33;;;;;;;;;;6340839;22;20437;-64
2023/01/13 13:20:44;;;;;;;4.80;1.42;;;;;;;;;;6341018;22;20242;-64
2023/01/13 13:23:28;;;;;;;6.75;1.60;;;;;;;;;;6341153;22;20146;-65
2023/01/13 13:26:13;;;;;;;5.32;1.27;;;;;;;;;;6340805;22;20147;-64
2023/01/13 13:28:43;;;;;;;4.00;1.23;;;;;;;;;;6340718;22;20191;-65
2023/01/13 13:31:16;;;;;;;4.37;1.50;;;;;;;;;;6340055;22;20388;-66
2023/01/13 13:33:49;;;;;;;2.38;1.00;;;;;;;;;;6342096;22;20162;-63
2023/01/13 13:36:33;;;;;;;3.92;1.00;;;;;;;;;;6342006;22;20133;-64
2023/01/13 13:47:40;;;;;;;4.97;1.55;;;;;;;;;;6340896;22;20535;-65
2023/01/13 13:50:07;;;;;;;6.47;1.40;;;;;;;;;;6341142;22;20139;-64
2023/01/13 13:52:40;;;;;;;2.85;1.27;;;;;;;;;;6340907;22;20150;-66
2023/01/13 13:55:16;;;;;;;4.97;1.23;;;;;;;;;;6341166;22;20246;-65
2023/01/13 13:57:44;;;;;;;5.68;1.23;;;;;;;;;;6341224;22;20127;-66
2023/01/13 14:00:18;;;;;;;4.57;1.35;;;;;;;;;;6340729;22;20157;-66
2023/01/13 14:02:49;;;;;;;4.47;1.00;;;;;;;;;;6341026;22;20146;-64
2023/01/13 14:05:17;;;;;;;3.30;1.10;;;;;;;;;;6341474;22;20150;-65
2023/01/13 14:07:44;;;;;;;3.35;1.20;;;;;;;;;;6342678;22;20190;-65
2023/01/13 14:10:23;;;;;;;2.78;1.10;;;;;;;;;;6342257;22;20537;-66
2023/01/13 14:12:50;;;;;;;6.30;1.23;;;;;;;;;;6342079;22;20521;-65
2023/01/13 14:15:30;;;;;;;3.95;1.00;;;;;;;;;;6342919;22;20176;-65
2023/01/13 14:17:56;;;;;;;5.13;1.20;;;;;;;;;;6342180;22;20221;-65
2023/01/13 14:20:22;;;;;;;3.85;1.10;;;;;;;;;;6342362;22;20135;-65
2023/01/13 14:22:49;;;;;;;6.18;1.42;;;;;;;;;;6342470;22;20130;-63
2023/01/13 14:25:39;;;;;;;5.05;1.20;;;;;;;;;;6342385;22;20138;-65
2023/01/13 14:28:25;;;;;;;3.47;1.20;;;;;;;;;;6327202;22;20444;-65
2023/01/13 14:30:51;;;;;;;3.40;0.90;;;;;;;;;;6342794;22;20150;-66
2023/01/13 14:33:19;;;;;;;4.05;0.90;;;;;;;;;;6339959;22;20166;-65
2023/01/13 14:36:04;;;;;;;3.63;1.10;;;;;;;;;;6339677;22;20508;-64
2023/01/13 14:38:30;;;;;;;6.03;2.20;;;;;;;;;;6339624;22;20218;-64
2023/01/13 14:40:56;;;;;;;5.15;1.35;;;;;;;;;;6339785;22;20142;-65
2023/01/13 14:43:24;;;;;;;6.88;1.40;;;;;;;;;;6340087;22;20157;-66
2023/01/13 14:45:55;;;;;;;3.38;1.02;;;;;;;;;;6340715;22;20146;-66
2023/01/13 14:48:21;;;;;;;3.13;1.33;;;;;;;;;;6341764;22;20169;-66
2023/01/13 14:50:47;;;;;;;3.03;1.25;;;;;;;;;;6342509;22;20143;-66
2023/01/13 14:53:45;;;;;;;4.13;1.23;;;;;;;;;;6341892;22;20177;-66
2023/01/13 14:56:30;;;;;;;3.65;1.20;;;;;;;;;;6216842;23;20279;-66
2023/01/13 14:58:56;;;;;;;4.05;1.23;;;;;;;;;;6216936;23;20171;-65
2023/01/13 15:01:35;;;;;;;6.55;1.20;;;;;;;;;;6216432;23;20560;-65
2023/01/13 15:04:17;;;;;;;6.72;1.50;;;;;;;;;;6217213;23;20160;-66
2023/01/13 15:06:47;;;;;;;4.03;1.17;;;;;;;;;;6216803;23;20180;-65
2023/01/13 15:09:13;;;;;;;5.53;1.52;;;;;;;;;;6217103;23;20153;-65
2023/01/13 15:11:39;;;;;;;3.88;1.30;;;;;;;;;;6216824;23;20164;-66
2023/01/13 15:14:09;;;;;;;6.25;1.42;;;;;;;;;;6217198;23;20271;-64
2023/01/13 15:16:35;;;;;;;5.30;1.35;;;;;;;;;;6216856;23;20223;-65
2023/01/13 15:19:02;;;;;;;5.88;1.83;;;;;;;;;;6217055;23;20219;-66
2023/01/13 15:21:28;;;;;;;5.07;1.58;;;;;;;;;;6216353;23;20168;-66
2023/01/13 15:23:54;;;;;;;5.47;1.42;;;;;;;;;;6216763;23;20496;-65
2023/01/13 15:26:24;;;;;;;2.70;1.15;;;;;;;;;;6216782;23;20149;-66
2023/01/13 15:28:50;;;;;;;5.28;1.75;;;;;;;;;;6216837;23;20444;-65
2023/01/13 15:31:16;;;;;;;2.08;1.08;;;;;;;;;;6256021;22;20199;-65
2023/01/13 15:33:42;;;;;;;5.28;1.63;;;;;;;;;;6341686;22;20166;-65
2023/01/13 15:36:17;;;;;;;5.07;1.35;;;;;;;;;;6342938;22;20199;-66
2023/01/13 15:38:43;;;;;;;4.60;1.30;;;;;;;;;;6341620;22;20596;-66
2023/01/13 15:41:09;;;;;;;5.82;1.35;;;;;;;;;;6341661;22;20177;-66
2023/01/13 15:46:38;;;;;;;4.38;1.38;;;;;;;;;;6341921;22;20141;-66
2023/01/13 15:49:08;;;;;;;4.65;1.63;;;;;;;;;;6342207;22;20127;-66
2023/01/13 15:51:35;;;;;;;4.70;1.58;;;;;;;;;;6341958;22;20280;-66
2023/01/13 15:54:01;;;;;;;6.00;1.77;;;;;;;;;;6342185;22;20172;-66
2023/01/13 15:56:27;;;;;;;7.97;1.52;;;;;;;;;;6342073;22;20203;-66
2023/01/13 15:58:53;;;;;;;5.55;1.40;;;;;;;;;;6341235;22;20138;-66
2023/01/13 16:01:20;;;;;;;5.47;1.30;;;;;;;;;;6341635;22;20142;-66
2023/01/13 16:03:46;;;;;;;4.53;1.50;;;;;;;;;;6341825;22;20144;-65
2023/01/13 16:06:16;;;;;;;3.72;1.20;;;;;;;;;;6341943;22;20153;-65
2023/01/13 16:08:42;;;;;;;2.58;1.30;;;;;;;;;;6341388;22;20150;-66
2023/01/13 16:11:08;;;;;;;5.15;1.33;;;;;;;;;;6341716;22;20511;-69
2023/01/13 16:13:34;;;;;;;8.18;1.60;;;;;;;;;;6341835;22;20171;-65
2023/01/13 16:16:00;;;;;;;3.95;1.10;;;;;;;;;;6341540;22;20443;-65
2023/01/13 16:18:26;;;;;;;3.50;1.13;;;;;;;;;;6341184;22;20134;-66
2023/01/13 16:20:55;;;;;;;3.15;1.23;;;;;;;;;;6341036;22;20154;-65
2023/01/13 16:23:22;;;;;;;3.50;1.30;;;;;;;;;;6341040;22;20199;-66
2023/01/13 16:25:48;;;;;;;3.80;1.52;;;;;;;;;;6341286;22;20168;-66
2023/01/13 16:28:34;;;;;;;4.80;1.48;;;;;;;;;;6340828;22;20171;-66
2023/01/13 16:31:14;;;;;;;5.25;1.65;;;;;;;;;;6341620;22;20521;-66
2023/01/13 16:33:40;;;;;;;5.57;1.25;;;;;;;;;;6341379;22;20250;-66
2023/01/13 16:36:12;;;;;;;7.72;1.70;;;;;;;;;;6340978;22;20190;-66
2023/01/13 16:38:37;;;;;;;5.45;1.35;;;;;;;;;;6341221;22;20122;-66
2023/01/13 16:41:03;;;;;;;5.68;1.88;;;;;;;;;;6341678;22;20149;-66
2023/01/13 16:43:29;;;;;;;4.95;1.40;;;;;;;;;;6341471;22;20165;-64
2023/01/13 16:45:55;;;;;;;3.40;1.25;;;;;;;;;;6341120;22;20138;-64
2023/01/13 16:48:21;;;;;;;5.35;1.42;;;;;;;;;;6340917;22;20215;-66
2023/01/13 16:50:47;;;;;;;5.47;1.58;;;;;;;;;;6341306;22;20166;-65
2023/01/13 16:53:13;;;;;;;5.57;1.40;;;;;;;;;;6340943;22;20162;-66
2023/01/13 16:55:40;;;;;;;3.63;1.38;;;;;;;;;;6341638;22;20210;-65
2023/01/13 16:58:06;;;;;;;5.72;1.40;;;;;;;;;;6341535;22;20144;-65
2023/01/13 17:00:32;;;;;;;6.13;1.50;;;;;;;;;;6341783;22;20170;-66
2023/01/13 17:03:00;;;;;;;5.13;1.40;;;;;;;;;;6341806;22;20553;-65
2023/01/13 17:05:27;;;;;;;4.85;1.65;;;;;;;;;;6341485;22;20211;-66
2023/01/13 17:07:52;;;;;;;3.50;1.38;;;;;;;;;;6341189;22;20191;-66
2023/01/13 17:10:20;;;;;;;5.55;1.40;;;;;;;;;;6340959;22;20452;-66
2023/01/13 17:12:46;;;;;;;7.00;1.52;;;;;;;;;;6340831;22;20142;-66
2023/01/13 17:15:13;;;;;;;2.13;0.90;;;;;;;;;;6341064;22;20242;-66
2023/01/13 17:17:40;;;;;;;4.65;1.45;;;;;;;;;;6340718;22;20150;-65
2023/01/13 17:20:07;;;;;;;3.72;1.45;;;;;;;;;;6341130;22;20176;-66
2023/01/13 17:22:33;;;;;;;4.47;1.40;;;;;;;;;;6341675;22;20142;-66
2023/01/13 17:24:59;;;;;;;5.10;1.55;;;;;;;;;;6340724;22;20142;-66
2023/01/13 17:27:25;;;;;;;4.63;1.48;;;;;;;;;;6341105;22;20247;-65
2023/01/13 17:29:51;;;;;;;3.30;1.38;;;;;;;;;;6340772;22;20142;-66
2023/01/13 17:32:18;;;;;;;5.10;1.50;;;;;;;;;;6340759;22;20138;-65
2023/01/13 17:34:44;;;;;;;7.65;1.73;;;;;;;;;;6340663;22;20173;-66
2023/01/13 17:37:13;;;;;;;4.47;1.45;;;;;;;;;;6340737;22;20138;-65
2023/01/13 17:39:39;;;;;;;3.63;1.30;;;;;;;;;;6342553;22;20157;-66
2023/01/13 17:42:05;;;;;;;5.32;1.45;;;;;;;;;;6343054;22;20153;-66
2023/01/13 17:44:31;;;;;;;4.60;1.10;;;;;;;;;;6342648;22;20167;-66
2023/01/13 17:46:57;;;;;;;4.35;1.30;;;;;;;;;;6344134;22;20138;-65
2023/01/13 17:49:23;;;;;;;5.38;1.20;;;;;;;;;;6342512;22;20157;-66
2023/01/13 17:51:50;;;;;;;2.67;1.35;;;;;;;;;;6342912;22;20177;-66
2023/01/13 17:54:16;;;;;;;3.92;0.98;;;;;;;;;;6342413;22;20192;-65
2023/01/13 17:56:42;;;;;;;3.13;1.13;;;;;;;;;;6342533;22;20408;-65
2023/01/13 17:59:09;;;;;;;5.18;1.02;;;;;;;;;;6342394;22;20150;-65
2023/01/13 18:01:35;;;;;;;2.60;1.02;;;;;;;;;;6342819;22;20134;-66
2023/01/13 18:04:02;;;;;;;2.28;0.93;;;;;;;;;;6342369;22;20160;-67
2023/01/13 18:06:28;;;;;;;2.78;0.88;;;;;;;;;;6342893;22;20199;-65
2023/01/13 18:08:54;;;;;;;5.53;1.25;;;;;;;;;;6342727;22;20143;-65
2023/01/13 18:11:21;;;;;;;2.22;1.05;;;;;;;;;;6342317;22;20518;-66
2023/01/13 18:13:53;;;;;;;1.92;0.60;;;;;;;;;;6342198;22;20168;-66
2023/01/13 18:16:20;;;;;;;3.45;0.98;;;;;;;;;;6342701;22;20416;-66
2023/01/13 18:18:47;;;;;;;1.35;0.60;;;;;;;;;;6342633;22;20149;-66
2023/01/13 18:27:47;;;;;;;1.85;0.77;;;;;;;;;;6342416;22;20153;-66
2023/01/13 18:29:42;;;;;;;1.42;0.55;;;;;;;;;;6321783;22;20185;-65
2023/01/13 18:32:08;;;;;;;2.40;0.55;;;;;;;;;;6342843;22;20391;-65
2023/01/13 18:34:37;;;;;;;1.42;0.68;;;;;;;;;;6341869;22;20577;-64
2023/01/13 18:37:04;;;;;;;1.08;0.60;;;;;;;;;;6342061;22;20486;-66
2023/01/13 18:39:30;;;;;;;2.15;0.80;;;;;;;;;;6342081;22;20130;-66
2023/01/13 18:45:05;;;;;;;2.63;0.65;;;;;;;;;;6342368;22;20141;-65
2023/01/13 18:47:32;;;;;;;3.50;1.10;;;;;;;;;;6343028;22;20512;-65
2023/01/13 18:49:58;;;;;;;3.10;1.00;;;;;;;;;;6342346;22;20134;-64
2023/01/13 18:52:25;;;;;;;2.75;1.05;;;;;;;;;;6343444;22;20211;-65
2023/01/13 18:54:51;;;;;;;6.25;1.40;;;;;;;;;;6342642;22;20223;-65
2023/01/13 18:57:17;;;;;;;2.70;0.85;;;;;;;;;;6343504;22;20156;-66
2023/01/13 18:59:43;;;;;;;2.05;1.10;;;;;;;;;;6343150;22;20138;-66
2023/01/13 19:02:13;;;;;;;2.45;1.02;;;;;;;;;;6343340;22;20204;-65
2023/01/13 19:04:39;;;;;;;2.55;1.30;;;;;;;;;;6343154;22;20469;-65
2023/01/13 19:07:05;;;;;;;4.47;1.00;;;;;;;;;;6343194;22;20160;-65
2023/01/13 19:09:31;;;;;;;3.58;1.20;;;;;;;;;;6342840;22;20233;-65
2023/01/13 19:11:59;;;;;;;1.95;1.08;;;;;;;;;;6343049;22;20139;-66
2023/01/13 19:14:36;;;;;;;1.80;1.00;;;;;;;;;;6342731;22;20174;-65
2023/01/13 19:17:10;;;;;;;3.17;1.00;;;;;;;;;;6342863;22;20201;-65
2023/01/13 19:20:03;;;;;;;4.03;1.10;;;;;;;;;;6342189;22;20196;-65
2023/01/13 19:22:32;;;;;;;6.38;1.13;;;;;;;;;;6337908;22;20577;-65
2023/01/13 19:24:58;;;;;;;3.97;1.10;;;;;;;;;;6343109;22;20150;-65
2023/01/13 19:27:26;;;;;;;7.78;1.20;;;;;;;;;;6342141;22;20142;-64
2023/01/13 19:29:52;;;;;;;3.38;1.10;;;;;;;;;;6342320;22;20221;-66
2023/01/13 19:32:19;;;;;;;3.55;1.00;;;;;;;;;;6341780;22;20214;-66
2023/01/13 19:34:46;;;;;;;5.22;1.25;;;;;;;;;;6341530;22;20460;-66
2023/01/13 19:37:12;;;;;;;3.83;1.10;;;;;;;;;;6342021;22;20142;-65
2023/01/13 19:39:38;;;;;;;1.77;0.88;;;;;;;;;;6341882;22;20230;-66
2023/01/13 19:47:34;;;;;;;3.75;0.95;;;;;;;;;;6341927;22;20193;-64
2023/01/13 19:50:02;;;;;;;2.47;1.20;;;;;;;;;;6341403;22;20150;-64
2023/01/13 19:52:28;;;;;;;5.60;1.20;;;;;;;;;;6342122;22;20213;-65
2023/01/13 19:54:55;;;;;;;4.63;1.10;;;;;;;;;;6341711;22;20170;-65
2023/01/13 19:57:21;;;;;;;3.92;1.38;;;;;;;;;;6342043;22;20146;-64
2023/01/13 19:59:47;;;;;;;2.50;1.08;;;;;;;;;;6341937;22;20176;-65
2023/01/13 20:02:26;;;;;;;4.88;1.00;;;;;;;;;;6342290;22;20208;-64
2023/01/13 20:04:54;;;;;;;3.10;1.00;;;;;;;;;;6342080;22;20126;-66
2023/01/13 20:07:20;;;;;;;1.63;0.90;;;;;;;;;;6341667;22;20149;-63
2023/01/13 20:09:46;;;;;;;5.22;0.90;;;;;;;;;;6341740;22;20149;-64
2023/01/13 20:12:15;;;;;;;2.80;0.98;;;;;;;;;;6341836;22;20173;-65
2023/01/13 20:14:42;;;;;;;5.13;0.98;;;;;;;;;;6341673;22;20166;-62
2023/01/13 20:17:08;;;;;;;3.08;1.00;;;;;;;;;;6341729;22;20528;-64
2023/01/13 20:19:34;;;;;;;2.80;1.10;;;;;;;;;;6341291;22;20594;-64
2023/01/13 20:22:00;;;;;;;2.33;1.10;;;;;;;;;;6341239;22;20161;-65
2023/01/13 20:24:26;;;;;;;4.00;1.02;;;;;;;;;;6341916;22;20150;-64
2023/01/13 20:26:53;;;;;;;2.58;0.82;;;;;;;;;;6341413;22;20559;-64
2023/01/13 20:29:20;;;;;;;2.10;0.88;;;;;;;;;;6341745;22;20420;-63
2023/01/13 20:31:46;;;;;;;4.22;0.90;;;;;;;;;;6341317;22;20138;-65
2023/01/13 20:34:13;;;;;;;3.22;0.98;;;;;;;;;;6342169;22;20493;-63
2023/01/13 20:36:42;;;;;;;2.13;0.88;;;;;;;;;;6341920;22;20199;-65
2023/01/13 20:39:10;;;;;;;2.85;0.80;;;;;;;;;;6366551;22;20172;-65
2023/01/13 20:44:20;;;;;;;1.88;0.90;;;;;;;;;;6341925;22;20402;-64
2023/01/13 20:46:46;;;;;;;0.93;0.50;;;;;;;;;;6341553;22;20142;-63
2023/01/13 20:49:13;;;;;;;0.63;0.55;;;;;;;;;;6341593;22;20233;-64
2023/01/13 20:51:40;;;;;;;2.70;0.80;;;;;;;;;;6341521;22;20205;-64
2023/01/13 20:54:07;;;;;;;2.75;0.90;;;;;;;;;;6341599;22;20172;-64
2023/01/13 20:56:33;;;;;;;2.70;0.82;;;;;;;;;;6341520;22;20162;-64
2023/01/13 20:58:59;;;;;;;1.98;0.70;;;;;;;;;;6341018;22;20560;-64
2023/01/13 21:01:26;;;;;;;3.90;1.08;;;;;;;;;;6341291;22;20233;-64
2023/01/13 21:03:55;;;;;;;2.25;0.73;;;;;;;;;;6341540;22;20206;-64
2023/01/13 21:06:21;;;;;;;5.22;0.95;;;;;;;;;;6341362;22;20230;-66
2023/01/13 21:08:47;;;;;;;3.20;1.00;;;;;;;;;;6341398;22;20146;-65
2023/01/13 21:11:16;;;;;;;2.33;1.00;;;;;;;;;;6341394;22;20411;-64
2023/01/13 21:16:26;;;;;;;4.72;0.88;;;;;;;;;;6343169;22;20148;-64
2023/01/13 21:19:09;;;;;;;3.17;0.90;;;;;;;;;;6343100;22;20526;-63
2023/01/13 21:21:35;;;;;;;3.42;1.17;;;;;;;;;;6343265;22;20215;-65
2023/01/13 21:24:01;;;;;;;1.90;0.73;;;;;;;;;;6344106;22;20149;-64
2023/01/13 21:26:27;;;;;;;3.05;1.00;;;;;;;;;;6343499;22;20142;-64
2023/01/13 21:28:56;;;;;;;4.28;1.00;;;;;;;;;;6343607;22;20156;-64
2023/01/13 21:31:22;;;;;;;3.63;0.88;;;;;;;;;;6343108;22;20602;-64
2023/01/13 21:33:52;;;;;;;4.25;0.93;;;;;;;;;;6343416;22;20170;-65
2023/01/13 21:36:18;;;;;;;2.90;1.00;;;;;;;;;;6343067;22;20142;-65
2023/01/13 21:38:44;;;;;;;1.85;0.80;;;;;;;;;;6343461;22;20422;-65
2023/01/13 21:41:13;;;;;;;4.75;0.80;;;;;;;;;;6343702;22;20141;-63
2023/01/13 21:49:08;;;;;;;5.13;0.90;;;;;;;;;;6343350;22;20153;-64
2023/01/13 21:51:34;;;;;;;1.98;0.70;;;;;;;;;;6342958;22;20441;-65
2023/01/13 21:54:00;;;;;;;1.75;0.70;;;;;;;;;;6342739;22;20169;-63
2023/01/13 21:56:26;;;;;;;3.50;0.82;;;;;;;;;;6342679;22;20139;-66
2023/01/13 21:58:54;;;;;;;2.47;0.70;;;;;;;;;;6342544;22;20617;-66
2023/01/13 22:01:20;;;;;;;3.45;1.00;;;;;;;;;;6342881;22;20195;-64
2023/01/13 22:06:31;;;;;;;2.97;0.80;;;;;;;;;;6342909;22;20199;-64
2023/01/13 22:08:59;;;;;;;3.08;0.90;;;;;;;;;;6343046;22;20143;-65
2023/01/13 22:11:25;;;;;;;2.70;0.70;;;;;;;;;;6342781;22;20168;-65
2023/01/13 22:14:10;;;;;;;3.30;0.95;;;;;;;;;;6342587;22;20167;-65
2023/01/13 22:16:38;;;;;;;3.08;1.05;;;;;;;;;;6342397;22;20533;-65
2023/01/13 22:19:04;;;;;;;3.03;1.10;;;;;;;;;;6342744;22;20230;-65
2023/01/13 22:21:30;;;;;;;4.88;1.20;;;;;;;;;;6342134;22;20200;-66
2023/01/13 22:23:58;;;;;;;3.53;1.00;;;;;;;;;;6341983;22;20138;-65
2023/01/13 22:26:24;;;;;;;4.18;1.30;;;;;;;;;;6342602;22;20204;-64
2023/01/13 22:28:50;;;;;;;5.18;1.23;;;;;;;;;;6342342;22;20150;-65
2023/01/13 22:31:17;;;;;;;5.00;1.10;;;;;;;;;;6342412;22;20218;-65
2023/01/13 22:33:45;;;;;;;5.82;0.90;;;;;;;;;;6342201;22;20166;-65
2023/01/13 22:36:12;;;;;;;4.00;1.00;;;;;;;;;;6342506;22;20153;-65
2023/01/13 22:38:38;;;;;;;4.20;1.10;;;;;;;;;;6342506;22;20516;-65
2023/01/13 22:41:06;;;;;;;2.72;0.82;;;;;;;;;;6342547;22;20191;-65
2023/01/13 22:43:32;;;;;;;2.92;1.17;;;;;;;;;;6342481;22;20142;-65
2023/01/13 22:45:59;;;;;;;9.63;2.38;;;;;;;;;;6342134;22;20576;-65
2023/01/13 22:48:25;;;;;;;6.20;1.50;;;;;;;;;;6341978;22;20596;-66
2023/01/13 22:50:51;;;;;;;4.88;1.00;;;;;;;;;;6342612;22;20142;-65
2023/01/13 22:53:17;;;;;;;7.53;1.67;;;;;;;;;;6341929;22;20142;-65
2023/01/13 22:55:43;;;;;;;6.78;1.15;;;;;;;;;;6342081;22;20217;-66
2023/01/13 22:58:09;;;;;;;7.25;1.30;;;;;;;;;;6341910;22;20147;-65
2023/01/13 23:00:35;;;;;;;3.60;1.10;;;;;;;;;;6342291;22;20156;-66
2023/01/13 23:03:01;;;;;;;3.85;1.13;;;;;;;;;;6341844;22;20165;-65
2023/01/13 23:05:27;;;;;;;7.40;1.50;;;;;;;;;;6341912;22;20144;-66
2023/01/13 23:07:53;;;;;;;5.05;0.90;;;;;;;;;;6342095;22;20442;-66
2023/01/13 23:10:19;;;;;;;6.97;1.30;;;;;;;;;;6341911;22;20146;-65
2023/01/13 23:12:47;;;;;;;6.10;1.30;;;;;;;;;;6341755;22;20166;-65
2023/01/13 23:15:13;;;;;;;3.90;1.17;;;;;;;;;;6342123;22;20174;-66
2023/01/13 23:17:39;;;;;;;6.05;1.50;;;;;;;;;;6341745;22;20437;-65
2023/01/13 23:20:05;;;;;;;5.00;0.98;;;;;;;;;;6341696;22;20413;-66
2023/01/13 23:22:32;;;;;;;2.85;1.02;;;;;;;;;;6341675;22;20142;-65
2023/01/13 23:24:58;;;;;;;6.32;1.25;;;;;;;;;;6342059;22;20143;-65
2023/01/13 23:27:24;;;;;;;2.97;1.00;;;;;;;;;;6341661;22;20154;-65
2023/01/13 23:29:50;;;;;;;6.10;1.30;;;;;;;;;;6341792;22;20271;-66
2023/01/13 23:32:16;;;;;;;9.75;1.40;;;;;;;;;;6341667;22;20148;-65
2023/01/13 23:34:42;;;;;;;4.47;0.90;;;;;;;;;;6341499;22;20177;-65
2023/01/13 23:37:08;;;;;;;4.72;1.05;;;;;;;;;;6341505;22;20146;-65
2023/01/13 23:39:34;;;;;;;4.72;1.30;;;;;;;;;;6341659;22;20134;-66
2023/01/13 23:42:00;;;;;;;5.82;1.10;;;;;;;;;;6342068;22;20177;-65
2023/01/13 23:44:26;;;;;;;11.80;1.45;;;;;;;;;;6342531;22;20176;-65
2023/01/13 23:46:52;;;;;;;6.93;1.10;;;;;;;;;;6341915;22;20489;-65
2023/01/13 23:49:18;;;;;;;4.78;0.80;;;;;;;;;;6342026;22;20169;-65
2023/01/13 23:51:44;;;;;;;3.20;0.90;;;;;;;;;;6341829;22;20196;-65
2023/01/13 23:54:09;;;;;;;6.10;1.00;;;;;;;;;;6341406;22;20165;-65
2023/01/13 23:56:38;;;;;;;6.88;1.42;;;;;;;;;;6341591;22;20142;-65
2023/01/13 23:59:04;;;;;;;3.90;0.95;;;;;;;;;;6342096;22;20259;-65
